Latest Weather Observations for Yarram Airport

IDV60801

Issued at 12:34 pm EDT Sunday 4 December 2016 (issued every 30 minutes, with the page automatically refreshed every 10 minutes)

About weather observations | Map of weather stations | Latest weather observations for VIC | Other Formats
Station Details ID: 085151 Name: YARRAM AIRPORT Lat: -38.56 Lon: 146.75 Height: 17.9 m
Data from the previous 72 hours. | See also: Recent months at Yarram Airport
Date/Time
EDT
Temp
°C
App
Temp
°C
Dew
Point
°C
Rel
Hum
%
Delta-T
°C
Wind Press
QNH
hPa
Press
MSL
hPa
Rain since
9am
mm
Dir  Spd
km/h
Gust
km/h
Spd
kts
Gust
kts
04/12:30pm 25.7 24.2 16.3 56 5.8 E 19 24 10 13 1009.2 1009.2 0.0
04/12:00pm 24.7 23.2 16.4 60 5.1 E 19 26 10 14 1009.6 1009.6 0.0
04/11:30am 24.6 22.9 14.7 54 5.9 E 17 26 9 14 1010.0 1010.0 0.0
04/11:00am 23.8 22.4 14.5 56 5.5 ENE 15 20 8 11 1010.5 1010.5 0.0
04/10:30am 22.6 20.8 14.4 60 4.8 ENE 17 26 9 14 1010.9 1010.9 0.0
04/10:00am 21.6 19.4 13.2 59 4.8 NE 17 24 9 13 1011.2 1011.2 0.0
04/09:30am 20.8 18.4 13.7 64 4.1 NE 19 26 10 14 1011.6 1011.6 0.0
04/09:00am 18.7 16.5 14.4 76 2.5 NE 19 30 10 16 1011.5 1011.5 0.0
04/08:30am 17.2 15.5 14.7 85 1.4 NE 17 20 9 11 1012.0 1012.0 0.0
04/08:00am 16.0 14.4 14.9 93 0.6 NE 17 24 9 13 1012.4 1012.4 0.0
04/07:30am 15.3 13.8 14.3 94 0.6 NNE 15 20 8 11 1012.6 1012.6 0.0
04/07:00am 14.4 13.1 13.6 95 0.4 NE 13 19 7 10 1012.5 1012.5 0.0
04/06:30am 13.3 11.6 12.5 95 0.4 NE 13 17 7 9 1012.8 1012.8 0.0
04/06:00am 11.4 10.0 10.8 96 0.3 NE 9 11 5 6 1013.2 1013.2 0.0
04/05:30am 10.9 9.3 10.1 95 0.4 NE 9 13 5 7 1013.0 1013.0 0.0
04/05:00am 9.8 7.1 9.0 95 0.4 NE 13 15 7 8 1013.0 1013.0 0.0
04/04:30am 9.9 8.0 9.0 94 0.4 NE 9 11 5 6 1012.8 1012.8 0.0
04/04:00am 10.1 8.2 9.2 94 0.4 NE 9 13 5 7 1012.9 1012.9 0.0
04/03:30am 9.2 7.4 8.1 93 0.5 NE 7 9 4 5 1013.2 1013.2 0.0
04/03:00am 8.9 5.9 7.8 93 0.5 NNE 13 13 7 7 1013.6 1013.6 0.0
04/02:30am 9.4 7.7 8.2 92 0.6 NE 7 11 4 6 1013.8 1013.8 0.0
04/02:00am 9.4 6.9 8.0 91 0.7 NE 11 13 6 7 1014.3 1014.3 0.0
04/01:30am 9.8 7.7 8.2 90 0.8 NE 9 13 5 7 1014.6 1014.6 0.0
04/01:00am 10.2 7.8 8.6 90 0.8 NE 11 15 6 8 1015.1 1015.1 0.0
04/12:30am 9.8 7.3 8.1 89 0.8 NE 11 13 6 7 1015.5 1015.5 0.0
04/12:00am 9.5 6.9 7.9 90 0.8 NE 11 15 6 8 1016.0 1016.0 0.0
 
Date/Time
EDT
Temp
°C
App
Temp
°C
Dew
Point
°C
Rel
Hum
%
Delta-T
°C
Wind Press
QNH
hPa
Press
MSL
hPa
Rain since
9am
mm
Dir  Spd
km/h
Gust
km/h
Spd
kts
Gust
kts
03/11:30pm 8.8 6.4 7.1 89 0.8 NE 9 11 5 6 1016.1 1016.1 0.0
03/11:00pm 8.9 6.5 7.0 88 0.9 NE 9 11 5 6 1016.4 1016.4 0.0
03/10:30pm 9.6 7.4 7.7 88 0.9 NE 9 11 5 6 1016.5 1016.5 0.0
03/10:00pm 8.6 5.9 5.7 82 1.3 NNE 9 11 5 6 1016.5 1016.5 0.0
03/09:30pm 11.4 9.3 8.3 81 1.5 ENE 9 11 5 6 1016.3 1016.3 0.0
03/09:00pm 12.2 10.2 8.5 78 1.8 E 9 11 5 6 1016.5 1016.5 0.0
03/08:30pm 13.1 10.6 8.4 73 2.3 E 11 13 6 7 1016.4 1016.4 0.0
03/08:00pm 14.5 12.1 8.7 68 2.9 E 11 15 6 8 1016.4 1016.4 0.0
03/07:30pm 15.5 12.7 8.7 64 3.5 E 13 20 7 11 1016.2 1016.2 0.0
03/07:00pm 16.1 13.0 8.8 62 3.7 E 15 20 8 11 1015.9 1015.9 0.0
03/06:30pm 16.6 12.7 8.6 59 4.1 ESE 19 24 10 13 1015.6 1015.6 0.0
03/06:00pm 17.1 13.0 8.8 58 4.3 ESE 20 30 11 16 1015.4 1015.4 0.0
03/05:30pm 17.3 13.8 8.7 57 4.4 ESE 17 24 9 13 1015.4 1015.4 0.0
03/05:00pm 18.2 14.9 9.5 57 4.6 ESE 17 24 9 13 1015.5 1015.5 0.0
03/04:30pm 18.5 14.6 9.6 56 4.7 SE 20 26 11 14 1015.6 1015.6 0.0
03/04:00pm 18.6 14.9 9.4 55 4.8 SE 19 30 10 16 1015.4 1015.4 0.0
03/03:30pm 19.2 15.3 8.8 51 5.4 SE 19 28 10 15 1015.4 1015.4 0.0
03/03:00pm 19.0 15.7 9.5 54 5.0 SE 17 26 9 14 1015.4 1015.4 0.0
03/02:30pm 18.2 14.8 9.0 55 4.8 SE 17 26 9 14 1015.7 1015.7 0.0
03/02:00pm 18.9 15.9 9.1 53 5.1 SE 15 26 8 14 1015.7 1015.7 0.0
03/01:30pm 18.9 15.6 9.7 55 4.9 SE 17 28 9 15 1016.0 1016.0 0.0
03/01:00pm 18.5 15.3 8.5 52 5.2 SE 15 22 8 12 1016.0 1016.0 0.0
03/12:30pm 19.2 16.1 10.2 56 4.8 ESE 17 24 9 13 1016.2 1016.2 0.0
03/12:00pm 18.6 14.5 8.6 52 5.2 SSE 20 30 11 16 1016.3 1016.3 0.0
03/11:30am 18.9 15.4 8.6 51 5.3 SE 17 24 9 13 1016.0 1016.0 0.0
03/11:00am 18.4 16.8 7.8 50 5.4 ESE 6 19 3 10 1016.1 1016.1 0.0
03/10:30am 17.4 15.7 7.5 52 5.0 NNW 6 9 3 5 1016.3 1016.3 0.0
03/10:00am 16.5 15.5 7.2 54 4.6 ENE 2 9 1 5 1016.5 1016.5 0.0
03/09:30am 16.4 15.8 7.3 55 4.5 CALM 0 0 0 0 1016.6 1016.6 0.0
03/09:00am 15.3 13.5 7.3 59 3.9 SSW 6 9 3 5 1016.6 1016.6 0.0
03/08:30am 15.0 14.4 8.9 67 3.1 NNW 2 7 1 4 1016.6 1016.6 0.0
03/08:00am 13.5 12.4 9.9 79 1.9 NW 6 7 3 4 1016.3 1016.3 0.0
03/07:30am 11.2 11.2 9.8 91 0.7 CALM 0 0 0 0 1016.2 1016.2 0.0
03/07:00am 9.3 8.9 8.2 93 0.5 CALM 0 0 0 0 1016.0 1016.0 0.0
03/06:30am 7.4 6.6 6.5 94 0.4 CALM 0 0 0 0 1015.9 1015.9 0.0
03/06:00am 6.1 5.0 5.1 93 0.4 CALM 0 0 0 0 1015.7 1015.7 0.0
03/05:30am 4.9 3.5 3.7 92 0.5 CALM 0 0 0 0 1015.5 1015.5 0.0
03/05:00am 5.3 4.0 4.0 91 0.5 CALM 0 0 0 0 1015.2 1015.2 0.0
03/04:30am 4.8 2.6 3.3 90 0.6 NW 4 7 2 4 1015.1 1015.1 0.0
03/04:00am 6.6 3.4 4.9 89 0.7 W 11 11 6 6 1015.1 1015.1 0.0
03/03:30am 6.0 3.5 4.0 87 0.8 W 6 7 3 4 1015.3 1015.3 0.0
03/03:00am 7.1 4.6 4.6 84 1.1 NW 7 7 4 4 1015.6 1015.6 0.0
03/02:30am 7.6 4.7 4.9 83 1.2 NNW 9 11 5 6 1015.8 1015.8 0.0
03/02:00am 7.5 4.6 4.6 82 1.3 NNW 9 11 5 6 1015.9 1015.9 0.0
03/01:30am 7.4 4.5 4.4 81 1.3 NNW 9 11 5 6 1016.2 1016.2 0.0
03/01:00am 8.1 4.8 4.5 78 1.6 NNW 11 13 6 7 1016.2 1016.2 0.0
03/12:30am 9.1 5.9 5.1 76 1.8 NNW 11 13 6 7 1016.3 1016.3 0.0
03/12:00am 8.1 5.3 5.2 82 1.3 NNW 9 11 5 6 1016.5 1016.5 0.0
 
Date/Time
EDT
Temp
°C
App
Temp
°C
Dew
Point
°C
Rel
Hum
%
Delta-T
°C
Wind Press
QNH
hPa
Press
MSL
hPa
Rain since
9am
mm
Dir  Spd
km/h
Gust
km/h
Spd
kts
Gust
kts
02/11:30pm 7.4 4.7 5.4 87 0.9 N 9 11 5 6 1016.4 1016.4 0.0
02/11:00pm 7.9 5.3 4.1 77 1.6 NNW 7 9 4 5 1016.4 1016.4 0.0
02/10:30pm 10.7 8.9 7.2 79 1.7 NW 6 9 3 5 1016.4 1016.4 0.0
02/10:00pm 9.9 7.4 6.6 80 1.5 N 9 13 5 7 1016.2 1016.2 0.0
02/09:30pm 10.2 7.9 5.8 74 2.0 NNE 7 11 4 6 1015.7 1015.7 0.0
02/09:00pm 12.6 9.5 7.3 70 2.6 WSW 13 15 7 8 1015.2 1015.2 0.0
02/08:30pm 13.4 9.1 7.2 66 3.0 WSW 19 24 10 13 1014.7 1014.7 0.0
02/08:00pm 14.7 9.5 7.3 61 3.6 WSW 24 32 13 17 1014.2 1014.2 0.0
02/07:30pm 15.9 10.4 7.7 58 4.1 SW 26 37 14 20 1013.8 1013.8 0.0
02/07:00pm 16.7 10.7 8.7 59 4.1 SW 30 39 16 21 1013.5 1013.5 0.0
02/06:30pm 17.1 10.3 7.7 54 4.7 SW 33 43 18 23 1013.0 1013.0 0.0
02/06:00pm 18.1 11.2 8.7 54 4.9 SW 35 50 19 27 1012.7 1012.7 0.0
02/05:30pm 18.6 11.8 9.4 55 4.8 SW 35 44 19 24 1012.5 1012.5 0.0
02/05:00pm 19.1 12.2 10.4 57 4.7 SW 37 48 20 26 1012.1 1012.1 0.0
02/04:30pm 19.1 12.0 10.9 59 4.5 SW 39 52 21 28 1011.6 1011.6 0.0
02/04:00pm 19.9 12.1 11.1 57 4.8 WSW 43 54 23 29 1011.4 1011.4 0.0
02/03:30pm 20.6 13.0 10.4 52 5.5 SW 41 50 22 27 1011.5 1011.5 0.0
02/03:00pm 21.3 14.5 10.5 50 5.9 SW 37 46 20 25 1011.6 1011.6 0.0
02/02:30pm 20.4 13.2 11.9 58 4.7 SW 41 54 22 29 1011.5 1011.5 0.0
02/02:00pm 20.8 13.5 11.4 55 5.2 SW 41 52 22 28 1011.3 1011.3 0.0
02/01:30pm 21.0 15.0 10.8 52 5.6 WSW 33 46 18 25 1011.1 1011.1 0.0
02/01:14pm 21.0 15.4 10.2 50 5.9 SW 30 48 16 26 1010.9 1010.9 0.0
02/01:00pm 21.9 16.0 9.1 44 6.8 W 30 43 16 23 1010.8 1010.8 0.0
02/12:30pm 21.5 16.4 9.1 45 6.6 WSW 26 35 14 19 1010.7 1010.7 0.0
02/12:00pm 21.0 16.0 9.6 48 6.1 WSW 26 41 14 22 1010.7 1010.7 0.0
02/11:30am 20.6 15.8 10.4 52 5.5 W 26 37 14 20 1010.6 1010.6 0.0
02/11:00am 20.2 14.5 11.1 56 5.0 W 32 41 17 22 1010.6 1010.6 0.0
02/10:30am 17.7 13.2 11.3 66 3.5 WSW 26 32 14 17 1010.6 1010.6 0.0
02/10:00am 17.7 13.8 12.2 70 3.0 WSW 24 30 13 16 1010.2 1010.2 0.0
02/09:30am 17.0 13.4 11.9 72 2.8 W 22 30 12 16 1009.9 1009.9 0.0
02/09:00am 16.8 12.8 11.7 72 2.8 W 24 30 13 16 1009.9 1009.9 0.0
02/08:30am 16.1 13.4 11.7 75 2.4 W 17 26 9 14 1009.7 1009.7 0.0
02/08:00am 16.0 13.2 11.4 74 2.5 W 17 20 9 11 1009.5 1009.5 0.0
02/07:30am 15.0 13.5 11.8 81 1.7 W 11 15 6 8 1009.0 1009.0 0.0
02/07:00am 14.3 11.5 11.5 83 1.5 W 17 20 9 11 1008.6 1008.6 0.0
02/06:30am 13.8 11.7 11.3 85 1.3 W 13 17 7 9 1008.2 1008.2 0.0
02/06:00am 13.6 11.9 11.1 85 1.3 W 11 13 6 7 1007.7 1007.7 0.0
02/05:30am 13.7 10.7 10.7 82 1.6 WSW 17 20 9 11 1007.3 1007.3 0.0
02/05:00am 14.0 11.4 10.8 81 1.7 WSW 15 20 8 11 1006.9 1006.9 0.0
02/04:30am 14.3 13.3 12.3 88 1.1 WSW 9 11 5 6 1006.6 1006.6 0.0
02/04:00am 14.2 13.7 12.6 90 0.9 WNW 7 9 4 5 1006.7 1006.7 0.0
02/03:30am 13.9 13.4 12.5 91 0.8 W 7 9 4 5 1006.8 1006.8 0.0
02/03:00am 13.8 13.3 12.7 93 0.6 W 7 11 4 6 1006.7 1006.7 0.0
02/02:30am 13.4 13.0 12.3 93 0.6 SSW 6 9 3 5 1006.8 1006.8 0.0
02/02:00am 13.9 14.8 12.8 93 0.6 CALM 0 0 0 0 1006.7 1006.7 0.0
02/01:30am 14.2 14.0 13.1 93 0.6 NNW 6 7 3 4 1006.9 1006.9 0.0
02/01:00am 13.8 13.4 12.9 94 0.5 NW 7 9 4 5 1007.2 1007.2 0.0
02/12:30am 13.5 13.2 12.6 94 0.5 WSW 6 7 3 4 1007.4 1007.4 0.0
02/12:00am 12.3 12.7 11.2 93 0.6 CALM 0 0 0 0 1007.5 1007.5 0.0
 
Date/Time
EDT
Temp
°C
App
Temp
°C
Dew
Point
°C
Rel
Hum
%
Delta-T
°C
Wind Press
QNH
hPa
Press
MSL
hPa
Rain since
9am
mm
Dir  Spd
km/h
Gust
km/h
Spd
kts
Gust
kts
01/11:30pm 12.6 13.0 11.3 92 0.7 CALM 0 0 0 0 1007.4 1007.4 0.0
01/11:00pm 12.8 13.2 11.4 91 0.7 CALM 0 0 0 0 1007.3 1007.3 0.0
01/10:30pm 13.3 12.6 11.4 88 1.0 ENE 6 7 3 4 1007.4 1007.4 0.0
01/10:00pm 14.6 14.2 12.5 87 1.1 E 6 7 3 4 1007.6 1007.6 0.0
01/09:30pm 15.3 14.9 13.0 86 1.3 E 7 11 4 6 1007.3 1007.3 0.0
01/09:00pm 15.8 15.4 12.9 83 1.6 E 7 11 4 6 1007.3 1007.3 0.0
01/08:30pm 16.1 15.6 12.8 81 1.8 E 7 9 4 5 1007.2 1007.2 0.0
01/08:00pm 17.7 17.0 13.2 75 2.5 SSE 9 11 5 6 1006.5 1006.5 0.0
01/07:30pm 18.7 17.8 12.7 68 3.4 SW 9 11 5 6 1006.0 1006.0 0.0
01/07:00pm 19.1 17.8 12.6 66 3.7 SW 11 15 6 8 1005.7 1005.7 0.0
01/06:30pm 19.7 18.0 12.5 63 4.0 SW 13 17 7 9 1005.6 1005.6 0.0
01/06:00pm 19.4 16.9 12.4 64 3.9 SW 17 20 9 11 1005.3 1005.3 0.0
01/05:30pm 20.5 18.1 12.7 61 4.4 SW 17 20 9 11 1005.3 1005.3 0.0
01/05:00pm 20.5 17.2 12.7 61 4.4 SW 22 30 12 16 1005.7 1005.7 0.0
01/04:30pm 21.8 18.2 13.2 58 4.9 SW 24 32 13 17 1005.6 1005.6 0.0
01/04:00pm 22.2 18.7 13.3 57 5.1 SSW 24 32 13 17 1005.6 1005.6 0.0
01/03:30pm 21.8 17.9 13.2 58 4.9 SW 26 35 14 19 1005.6 1005.6 0.0
01/03:00pm 22.5 18.2 13.3 56 5.3 SSW 28 39 15 21 1005.8 1005.8 0.0
01/02:30pm 22.5 19.1 13.6 57 5.2 SW 24 33 13 18 1006.0 1006.0 0.0
01/02:00pm 22.5 19.1 12.4 52 5.8 SW 22 30 12 16 1006.2 1006.2 0.0
01/01:30pm 22.1 18.6 12.1 53 5.6 SW 22 32 12 17 1006.6 1006.6 0.0
01/01:00pm 22.4 18.9 12.1 52 5.8 WSW 22 32 12 17 1006.8 1006.8 0.0

Other Formats:

Comma delimited format used in spreadsheet applications
http://www.bom.gov.au/fwo/IDV60801/IDV60801.95890.axf

JavaScript Object Notation format (JSON) in row-major order
http://www.bom.gov.au/fwo/IDV60801/IDV60801.95890.json